createdAt,value
2019-05-09T00:02:27.413Z,79.80
2019-05-09T00:04:56.332Z,79.90
2019-05-09T00:07:25.396Z,80.10
2019-05-09T00:09:54.158Z,79.80
2019-05-09T00:12:23.492Z,79.80
2019-05-09T00:14:53.940Z,80.10
2019-05-09T00:17:23.297Z,79.80
2019-05-09T00:19:54.151Z,79.40
2019-05-09T00:22:24.045Z,79.30
2019-05-09T00:24:53.958Z,79.40
2019-05-09T00:27:23.180Z,79.80
2019-05-09T00:29:53.160Z,79.70
2019-05-09T00:32:28.069Z,79.60
2019-05-09T00:35:05.668Z,79.70
2019-05-09T00:37:54.652Z,79.70
2019-05-09T00:40:24.347Z,79.40
2019-05-09T00:42:54.293Z,79.90
2019-05-09T00:45:41.065Z,80.40
2019-05-09T00:48:13.540Z,80.80
2019-05-09T00:50:43.730Z,81.30
2019-05-09T00:53:13.751Z,81.30
2019-05-09T00:55:43.662Z,80.90
2019-05-09T00:58:13.577Z,80.90
2019-05-09T01:00:43.988Z,80.90
2019-05-09T01:03:14.179Z,80.60
2019-05-09T01:05:43.760Z,80.50
2019-05-09T01:08:13.711Z,80.40
2019-05-09T01:10:43.621Z,80.20
2019-05-09T01:13:14.229Z,80.10
2019-05-09T01:15:44.093Z,80.00
2019-05-09T01:18:13.308Z,79.80
2019-05-09T01:20:44.071Z,80.00
2019-05-09T01:23:14.191Z,79.70
2019-05-09T01:25:43.681Z,79.50
2019-05-09T01:28:13.978Z,79.40
2019-05-09T01:30:43.969Z,79.30
2019-05-09T01:33:47.135Z,79.40
2019-05-09T01:36:15.971Z,79.70
2019-05-09T01:38:45.168Z,79.90
2019-05-09T01:41:27.169Z,80.20
2019-05-09T01:43:45.093Z,80.20
2019-05-09T01:46:14.563Z,80.60
2019-05-09T01:48:43.627Z,80.60
2019-05-09T01:51:13.937Z,80.60
2019-05-09T01:53:48.693Z,80.20
2019-05-09T01:56:17.465Z,80.20
2019-05-09T01:58:46.526Z,80.20
2019-05-09T02:01:15.356Z,80.50
2019-05-09T02:03:44.420Z,80.50
2019-05-09T02:06:13.760Z,80.20
2019-05-09T02:08:43.782Z,80.40
2019-05-09T02:11:13.389Z,80.20
2019-05-09T02:13:44.192Z,80.30
2019-05-09T02:16:47.166Z,80.30
2019-05-09T02:19:35.292Z,80.30
2019-05-09T02:22:07.447Z,80.20
2019-05-09T02:24:36.490Z,80.10
2019-05-09T02:27:05.551Z,80.30
2019-05-09T02:29:34.322Z,80.00
2019-05-09T02:32:04.576Z,80.20
2019-05-09T02:34:35.591Z,80.40
2019-05-09T02:37:04.306Z,80.40
2019-05-09T02:39:33.075Z,80.90
2019-05-09T02:42:09.467Z,81.10
2019-05-09T02:44:32.434Z,81.00
2019-05-09T02:47:08.969Z,81.10
2019-05-09T02:49:39.157Z,80.90
2019-05-09T02:52:08.906Z,80.90
2019-05-09T02:54:39.221Z,80.90
2019-05-09T02:57:09.315Z,80.90
2019-05-09T02:59:59.278Z,80.60
2019-05-09T03:02:48.701Z,80.50
2019-05-09T03:05:19.587Z,80.60
2019-05-09T03:07:52.224Z,80.80
2019-05-09T03:10:22.417Z,80.80
2019-05-09T03:12:51.843Z,80.90
2019-05-09T03:15:21.339Z,80.90
2019-05-09T03:17:50.643Z,80.90
2019-05-09T03:20:42.377Z,80.80
2019-05-09T03:23:11.127Z,80.80
2019-05-09T03:25:40.905Z,81.00
2019-05-09T03:28:18.374Z,81.10
2019-05-09T03:30:50.327Z,80.70
2019-05-09T03:33:20.109Z,80.90
2019-05-09T03:35:49.260Z,80.90
2019-05-09T03:38:18.050Z,81.00
2019-05-09T03:40:47.795Z,81.40
2019-05-09T03:43:18.395Z,81.10
2019-05-09T03:45:53.709Z,80.80
2019-05-09T03:48:31.436Z,81.00
2019-05-09T03:51:00.220Z,81.00
2019-05-09T03:53:29.279Z,80.80
2019-05-09T03:56:00.186Z,80.60
2019-05-09T03:58:29.311Z,80.90
2019-05-09T04:00:58.140Z,81.70
2019-05-09T04:03:27.630Z,80.40
2019-05-09T04:06:02.698Z,81.20
2019-05-09T04:08:28.254Z,81.00
2019-05-09T04:10:58.664Z,80.50
2019-05-09T04:13:33.106Z,81.00
2019-05-09T04:16:01.900Z,80.80
2019-05-09T04:18:30.667Z,80.60
2019-05-09T04:20:59.781Z,80.40
2019-05-09T04:23:28.810Z,80.70
2019-05-09T04:26:04.208Z,80.90
2019-05-09T04:28:32.975Z,81.20
2019-05-09T04:31:01.769Z,80.90
2019-05-09T04:33:30.551Z,81.20
2019-05-09T04:35:59.678Z,80.90
2019-05-09T04:38:28.878Z,80.60
2019-05-09T04:40:58.463Z,80.40
2019-05-09T04:43:35.498Z,80.40
2019-05-09T04:46:00.005Z,80.40
2019-05-09T04:48:32.615Z,80.70
2019-05-09T04:51:03.457Z,80.10
2019-05-09T04:53:33.059Z,80.20
2019-05-09T04:56:07.604Z,80.40
2019-05-09T04:58:37.616Z,80.30
2019-05-09T05:01:27.679Z,80.20
2019-05-09T05:03:57.400Z,80.60
2019-05-09T05:06:28.134Z,80.60
2019-05-09T05:08:58.596Z,80.30
2019-05-09T05:11:28.018Z,80.20
2019-05-09T05:13:58.675Z,80.00
2019-05-09T05:16:27.531Z,80.20
2019-05-09T05:18:58.435Z,80.20
2019-05-09T05:21:28.455Z,80.00
2019-05-09T05:24:21.190Z,79.70
2019-05-09T05:26:49.980Z,79.50
2019-05-09T05:29:18.958Z,79.90
2019-05-09T05:31:47.910Z,80.00
2019-05-09T05:34:31.591Z,80.20
2019-05-09T05:37:00.376Z,80.00
2019-05-09T05:39:29.146Z,79.60
2019-05-09T05:41:58.783Z,79.50
2019-05-09T05:44:28.285Z,79.60
2019-05-09T05:47:09.455Z,79.40
2019-05-09T05:49:38.566Z,79.70
2019-05-09T05:52:08.155Z,79.40
2019-05-09T05:54:37.909Z,79.30
2019-05-09T05:57:08.388Z,79.00
2019-05-09T05:59:40.806Z,79.20
2019-05-09T06:02:08.782Z,79.00
2019-05-09T06:04:38.218Z,79.20
2019-05-09T06:07:08.136Z,79.00
2019-05-09T06:09:37.946Z,79.70
2019-05-09T06:12:08.193Z,79.70
2019-05-09T06:14:37.944Z,80.40
2019-05-09T06:17:07.873Z,80.60
2019-05-09T06:19:37.874Z,80.10
2019-05-09T06:22:08.265Z,80.00
2019-05-09T06:24:38.793Z,78.70
2019-05-09T06:27:10.475Z,78.80
2019-05-09T06:29:39.205Z,78.40
2019-05-09T06:32:08.155Z,78.70
2019-05-09T06:34:41.300Z,78.00
2019-05-09T06:37:08.856Z,77.90
2019-05-09T06:39:38.503Z,77.90
2019-05-09T06:42:09.073Z,77.70
2019-05-09T06:44:58.407Z,78.10
2019-05-09T06:47:33.870Z,77.50
2019-05-09T06:50:07.965Z,77.80
2019-05-09T06:52:37.628Z,77.50
2019-05-09T06:55:08.664Z,77.90
2019-05-09T06:57:42.114Z,77.60
2019-05-09T07:00:17.811Z,77.70
2019-05-09T07:03:08.860Z,77.30
2019-05-09T07:06:04.879Z,77.10
2019-05-09T07:08:42.784Z,77.70
2019-05-09T07:11:11.868Z,77.60
2019-05-09T07:13:40.959Z,76.00
2019-05-09T07:16:10.366Z,76.60
2019-05-09T07:18:39.409Z,76.20
2019-05-09T07:21:08.561Z,74.70
2019-05-09T07:23:37.465Z,74.90
2019-05-09T07:26:10.642Z,75.70
2019-05-09T07:28:39.903Z,75.50
2019-05-09T07:31:28.374Z,75.40
2019-05-09T07:34:19.588Z,75.50
2019-05-09T07:36:48.364Z,73.60
2019-05-09T07:39:17.692Z,74.10
2019-05-09T07:41:47.771Z,74.50
2019-05-09T07:44:18.208Z,74.40
2019-05-09T07:46:59.114Z,74.70
2019-05-09T07:49:29.424Z,74.80
2019-05-09T07:52:00.403Z,73.70
2019-05-09T07:54:29.569Z,73.60
2019-05-09T07:56:58.427Z,73.30
2019-05-09T07:59:27.551Z,73.50
2019-05-09T08:01:58.101Z,73.20
2019-05-09T08:04:28.609Z,73.00
2019-05-09T08:06:57.886Z,72.60
2019-05-09T08:09:28.073Z,72.80
2019-05-09T08:11:58.700Z,72.60
2019-05-09T08:14:28.201Z,70.50
2019-05-09T08:16:58.016Z,70.40
2019-05-09T08:19:27.531Z,70.90
2019-05-09T08:21:57.595Z,69.60
2019-05-09T08:24:27.723Z,69.60
2019-05-09T08:26:58.050Z,69.00
2019-05-09T08:29:28.186Z,69.20
2019-05-09T08:31:58.216Z,69.60
2019-05-09T08:34:28.500Z,69.30
2019-05-09T08:36:58.250Z,69.70
2019-05-09T08:39:27.883Z,69.00
2019-05-09T08:41:59.323Z,68.00
2019-05-09T08:44:30.439Z,67.60
2019-05-09T08:46:58.529Z,64.70
2019-05-09T08:49:37.313Z,64.60
2019-05-09T08:52:15.831Z,64.90
2019-05-09T08:54:41.506Z,63.00
2019-05-09T08:57:10.452Z,64.40
2019-05-09T08:59:39.212Z,63.80
2019-05-09T09:02:14.788Z,64.90
2019-05-09T09:04:39.100Z,63.20
2019-05-09T09:07:08.520Z,63.50
2019-05-09T09:09:37.976Z,62.70
2019-05-09T09:12:25.184Z,63.00
2019-05-09T09:14:38.606Z,62.80
2019-05-09T09:17:07.962Z,62.20
2019-05-09T09:19:38.535Z,61.30
2019-05-09T09:22:08.843Z,61.10
2019-05-09T09:24:38.279Z,60.90
2019-05-09T09:27:07.939Z,60.00
2019-05-09T09:29:38.069Z,59.70
2019-05-09T09:32:08.315Z,59.60
2019-05-09T09:34:38.137Z,58.20
2019-05-09T09:37:11.359Z,59.30
2019-05-09T09:39:44.521Z,58.40
2019-05-09T09:42:09.176Z,58.90
2019-05-09T09:44:39.315Z,57.10
2019-05-09T09:47:08.537Z,56.30
2019-05-09T09:49:38.397Z,57.50
2019-05-09T09:52:08.715Z,57.00
2019-05-09T09:54:38.724Z,57.00
2019-05-09T09:57:09.642Z,56.70
2019-05-09T09:59:48.127Z,56.00
2019-05-09T10:02:17.335Z,54.20
2019-05-09T10:04:46.104Z,54.10
2019-05-09T10:07:14.967Z,53.30
2019-05-09T10:09:43.720Z,53.60
2019-05-09T10:12:12.897Z,52.70
2019-05-09T10:14:45.870Z,52.70
2019-05-09T10:17:39.484Z,52.40
2019-05-09T10:20:14.320Z,51.60
2019-05-09T10:22:46.213Z,52.20
2019-05-09T10:25:14.123Z,52.90
2019-05-09T10:27:43.707Z,49.90
2019-05-09T10:30:13.016Z,49.30
2019-05-09T10:32:42.212Z,49.50
2019-05-09T10:35:17.717Z,49.40
2019-05-09T10:37:48.486Z,49.90
2019-05-09T10:40:23.073Z,50.30
2019-05-09T10:42:58.692Z,51.50
2019-05-09T10:45:48.310Z,49.90
2019-05-09T10:48:23.805Z,49.40
2019-05-09T10:50:54.110Z,50.80
2019-05-09T10:53:19.316Z,50.10
2019-05-09T10:55:48.340Z,49.70
2019-05-09T10:58:20.255Z,51.00
2019-05-09T11:00:48.555Z,49.10
2019-05-09T11:03:18.147Z,49.00
2019-05-09T11:05:47.388Z,50.40
2019-05-09T11:08:18.495Z,50.00
2019-05-09T11:10:47.536Z,50.10
2019-05-09T11:13:18.202Z,50.90
2019-05-09T11:15:47.980Z,48.80
2019-05-09T11:18:18.499Z,48.10
2019-05-09T11:20:47.897Z,48.60
2019-05-09T11:23:19.324Z,49.50
2019-05-09T11:25:49.280Z,50.00
2019-05-09T11:28:18.421Z,49.60
2019-05-09T11:30:47.766Z,49.50
2019-05-09T11:33:18.299Z,50.70
2019-05-09T11:35:47.949Z,49.40
2019-05-09T11:38:29.326Z,49.00
2019-05-09T11:40:48.599Z,49.60
2019-05-09T11:43:18.106Z,47.60
2019-05-09T11:45:47.945Z,47.50
2019-05-09T11:48:18.689Z,47.50
2019-05-09T11:50:47.840Z,47.50
2019-05-09T11:53:17.648Z,48.30
2019-05-09T11:55:48.330Z,46.00
2019-05-09T11:58:18.129Z,47.80
2019-05-09T12:00:48.338Z,45.20
2019-05-09T12:03:18.935Z,43.00
2019-05-09T12:05:48.405Z,45.20
2019-05-09T12:08:17.786Z,43.80
2019-05-09T12:10:47.014Z,44.70
2019-05-09T12:13:18.541Z,44.80
2019-05-09T12:15:48.908Z,44.50
2019-05-09T12:18:17.471Z,45.60
2019-05-09T12:20:48.375Z,44.60
2019-05-09T12:23:19.870Z,46.80
2019-05-09T12:25:48.973Z,45.40
2019-05-09T12:28:18.964Z,43.90
2019-05-09T12:30:48.946Z,45.50
2019-05-09T12:33:18.771Z,45.90
2019-05-09T12:35:48.107Z,46.40
2019-05-09T12:38:18.108Z,45.60
2019-05-09T12:40:48.221Z,44.30
2019-05-09T12:43:18.547Z,44.90
2019-05-09T12:45:48.093Z,44.30
2019-05-09T12:48:19.525Z,45.20
2019-05-09T12:50:48.960Z,45.40
2019-05-09T12:53:18.935Z,44.90
2019-05-09T12:55:49.909Z,45.10
2019-05-09T12:58:28.000Z,44.40
2019-05-09T13:00:58.610Z,45.40
2019-05-09T13:03:29.016Z,46.70
2019-05-09T13:05:58.386Z,46.10
2019-05-09T13:08:27.835Z,45.50
2019-05-09T13:10:58.316Z,43.80
2019-05-09T13:13:31.650Z,45.40
2019-05-09T13:16:38.951Z,43.80
2019-05-09T13:19:06.316Z,43.60
2019-05-09T13:21:36.124Z,40.90
2019-05-09T13:24:08.393Z,41.70
2019-05-09T13:26:38.462Z,42.80
2019-05-09T13:29:08.194Z,42.60
2019-05-09T13:31:39.489Z,43.80
2019-05-09T13:34:08.487Z,41.70
2019-05-09T13:36:37.295Z,43.10
2019-05-09T13:39:08.805Z,42.50
2019-05-09T13:41:38.766Z,42.30
2019-05-09T13:44:13.304Z,41.90
2019-05-09T13:46:38.820Z,41.80
2019-05-09T13:49:12.464Z,42.50
2019-05-09T13:51:48.460Z,42.60
2019-05-09T13:54:09.312Z,42.70
2019-05-09T13:56:38.105Z,41.90
2019-05-09T13:59:08.380Z,42.30
2019-05-09T14:01:37.801Z,41.80
2019-05-09T14:04:07.909Z,43.00
2019-05-09T14:06:38.808Z,42.80
2019-05-09T14:09:10.355Z,43.30
2019-05-09T14:11:39.331Z,44.10
2019-05-09T14:14:08.529Z,45.00
2019-05-09T14:16:38.830Z,45.50
2019-05-09T14:19:29.764Z,44.40
2019-05-09T14:21:38.962Z,43.80
2019-05-09T14:24:14.460Z,44.10
2019-05-09T14:26:38.324Z,44.70
2019-05-09T14:29:07.188Z,45.40
2019-05-09T14:31:38.646Z,45.20
2019-05-09T14:34:08.751Z,45.20
2019-05-09T14:36:39.250Z,44.10
2019-05-09T14:39:09.414Z,44.10
2019-05-09T14:41:39.014Z,44.50
2019-05-09T14:44:09.302Z,43.60
2019-05-09T14:46:39.217Z,45.00
2019-05-09T14:49:08.872Z,45.40
2019-05-09T14:51:38.162Z,45.40
2019-05-09T14:54:08.371Z,46.90
2019-05-09T14:56:41.716Z,46.60
2019-05-09T14:59:09.808Z,47.00
2019-05-09T15:01:39.946Z,46.60
2019-05-09T15:04:09.250Z,46.80
2019-05-09T15:06:38.041Z,46.90
2019-05-09T15:09:08.601Z,46.90
2019-05-09T15:11:39.479Z,47.00
2019-05-09T15:14:08.584Z,46.90
2019-05-09T15:16:39.262Z,46.50
2019-05-09T15:19:08.665Z,46.10
2019-05-09T15:21:38.426Z,46.60
2019-05-09T15:24:09.131Z,46.30
2019-05-09T15:26:38.131Z,47.40
2019-05-09T15:29:08.072Z,47.10
2019-05-09T15:31:39.094Z,48.20
2019-05-09T15:34:09.555Z,48.90
2019-05-09T15:36:38.661Z,48.20
2019-05-09T15:39:08.304Z,49.00
2019-05-09T15:41:38.391Z,48.20
2019-05-09T15:44:08.673Z,48.70
2019-05-09T15:46:48.368Z,48.10
2019-05-09T15:49:18.326Z,48.40
2019-05-09T15:51:47.892Z,47.30
2019-05-09T15:54:17.826Z,48.50
2019-05-09T15:56:48.331Z,49.20
2019-05-09T15:59:18.432Z,48.30
2019-05-09T16:01:49.106Z,49.10
2019-05-09T16:04:18.292Z,48.60
2019-05-09T16:06:50.292Z,48.80
2019-05-09T16:09:18.125Z,49.80
2019-05-09T16:11:48.418Z,49.40
2019-05-09T16:14:18.458Z,49.10
2019-05-09T16:16:48.079Z,49.70
2019-05-09T16:19:16.992Z,48.70
2019-05-09T16:21:47.727Z,48.60
2019-05-09T16:24:18.659Z,49.10
2019-05-09T16:26:48.745Z,49.70
2019-05-09T16:29:18.158Z,49.50
2019-05-09T16:31:48.068Z,49.40
2019-05-09T16:34:17.870Z,49.50
2019-05-09T16:36:48.026Z,50.10
2019-05-09T16:39:18.075Z,50.10
2019-05-09T16:41:48.280Z,50.00
2019-05-09T16:44:18.247Z,50.40
2019-05-09T16:46:48.487Z,50.00
2019-05-09T16:49:20.000Z,50.80
2019-05-09T16:51:49.019Z,50.20
2019-05-09T16:54:18.244Z,50.30
2019-05-09T16:56:47.484Z,50.10
2019-05-09T16:59:17.841Z,50.10
2019-05-09T17:01:50.070Z,50.60
2019-05-09T17:04:19.252Z,50.20
2019-05-09T17:06:49.689Z,50.90
2019-05-09T17:09:19.122Z,50.50
2019-05-09T17:11:48.169Z,50.40
2019-05-09T17:14:19.324Z,51.10
2019-05-09T17:16:48.379Z,51.30
2019-05-09T17:19:19.464Z,51.50
2019-05-09T17:22:07.961Z,51.50
2019-05-09T17:24:38.469Z,51.40
2019-05-09T17:27:08.680Z,51.40
2019-05-09T17:29:38.270Z,51.30
2019-05-09T17:32:07.825Z,50.70
2019-05-09T17:34:38.150Z,50.70
2019-05-09T17:37:08.044Z,50.70
2019-05-09T17:39:38.687Z,51.00
2019-05-09T17:42:07.973Z,51.20
2019-05-09T17:44:36.896Z,51.10
2019-05-09T17:47:08.292Z,50.80
2019-05-09T17:49:37.575Z,51.30
2019-05-09T17:52:07.699Z,51.70
2019-05-09T17:54:37.937Z,51.40
2019-05-09T17:57:08.187Z,51.50
2019-05-09T17:59:39.274Z,51.70
2019-05-09T18:02:08.691Z,52.00
2019-05-09T18:04:37.965Z,52.10
2019-05-09T18:07:08.727Z,52.20
2019-05-09T18:09:38.183Z,51.80
2019-05-09T18:12:08.318Z,51.80
2019-05-09T18:14:38.308Z,52.00
2019-05-09T18:17:07.317Z,51.80
2019-05-09T18:19:38.099Z,52.00
2019-05-09T18:22:08.201Z,52.30
2019-05-09T18:24:37.751Z,52.50
2019-05-09T18:27:07.709Z,52.50
2019-05-09T18:29:38.073Z,52.60
2019-05-09T18:32:17.660Z,53.00
2019-05-09T18:34:48.620Z,53.00
2019-05-09T18:37:18.376Z,53.20
2019-05-09T18:39:48.427Z,53.10
2019-05-09T18:42:18.013Z,53.60
2019-05-09T18:44:47.615Z,53.90
2019-05-09T18:47:18.495Z,54.10
2019-05-09T18:49:47.507Z,54.60
2019-05-09T18:52:16.504Z,54.30
2019-05-09T18:54:45.284Z,54.70
2019-05-09T18:57:14.699Z,54.40
2019-05-09T18:59:43.586Z,54.80
2019-05-09T19:02:12.703Z,55.10
2019-05-09T19:04:41.901Z,54.80
2019-05-09T19:07:21.739Z,55.00
2019-05-09T19:09:41.223Z,55.20
2019-05-09T19:12:10.189Z,55.50
2019-05-09T19:14:39.088Z,56.00
2019-05-09T19:17:30.236Z,56.10
2019-05-09T19:20:15.927Z,56.20
2019-05-09T19:22:45.433Z,56.10
2019-05-09T19:25:14.602Z,56.40
2019-05-09T19:27:43.486Z,56.80
2019-05-09T19:30:12.751Z,57.20
2019-05-09T19:32:41.523Z,57.50
2019-05-09T19:35:10.292Z,57.70
2019-05-09T19:37:39.059Z,58.10
2019-05-09T19:40:09.918Z,58.50
2019-05-09T19:42:38.723Z,59.00
2019-05-09T19:45:08.245Z,59.20
2019-05-09T19:47:37.029Z,59.20
2019-05-09T19:50:06.206Z,59.50
2019-05-09T19:52:38.490Z,59.50
2019-05-09T19:55:05.891Z,59.20
2019-05-09T19:57:34.661Z,59.60
2019-05-09T20:00:03.636Z,59.80
2019-05-09T20:02:32.407Z,60.10
2019-05-09T20:05:01.979Z,60.20
2019-05-09T20:07:30.752Z,60.50
2019-05-09T20:10:18.603Z,60.60
2019-05-09T20:13:06.530Z,60.70
2019-05-09T20:15:35.286Z,60.60
2019-05-09T20:18:04.451Z,60.70
2019-05-09T20:20:33.210Z,60.60
2019-05-09T20:23:02.008Z,60.30
2019-05-09T20:25:30.890Z,60.20
2019-05-09T20:27:59.799Z,60.20
2019-05-09T20:30:28.876Z,60.30
2019-05-09T20:32:57.992Z,60.10
2019-05-09T20:35:26.844Z,60.00
2019-05-09T20:37:55.788Z,60.00
2019-05-09T20:40:25.013Z,61.10
2019-05-09T20:42:54.239Z,60.30
2019-05-09T20:45:24.306Z,60.40
2019-05-09T20:47:53.264Z,60.70
2019-05-09T20:50:22.296Z,60.50
2019-05-09T20:52:51.643Z,60.60
2019-05-09T20:55:20.949Z,60.10
2019-05-09T20:57:52.099Z,60.30
2019-05-09T21:00:21.154Z,59.70
2019-05-09T21:02:50.112Z,59.50
2019-05-09T21:05:19.060Z,59.50
2019-05-09T21:07:48.255Z,59.40
2019-05-09T21:10:17.465Z,59.70
2019-05-09T21:12:46.421Z,59.40
2019-05-09T21:15:15.605Z,59.20
2019-05-09T21:17:44.556Z,60.20
2019-05-09T21:20:13.924Z,59.30
2019-05-09T21:22:43.261Z,59.10
2019-05-09T21:25:12.423Z,59.40
2019-05-09T21:27:41.382Z,59.60
2019-05-09T21:30:10.708Z,59.50
2019-05-09T21:32:40.063Z,59.40
2019-05-09T21:35:08.982Z,59.40
2019-05-09T21:37:37.761Z,59.60
2019-05-09T21:40:08.047Z,59.70
2019-05-09T21:42:36.847Z,59.70
2019-05-09T21:45:05.775Z,59.90
2019-05-09T21:47:34.535Z,60.20
2019-05-09T21:50:03.394Z,60.10
2019-05-09T21:52:32.800Z,60.10
2019-05-09T21:55:01.827Z,60.30
2019-05-09T21:57:30.665Z,60.20
2019-05-09T21:59:59.432Z,60.30
2019-05-09T22:02:28.459Z,60.20
2019-05-09T22:04:57.378Z,60.70
2019-05-09T22:07:28.626Z,60.90
2019-05-09T22:09:57.491Z,60.80
2019-05-09T22:12:26.399Z,61.40
2019-05-09T22:14:55.186Z,61.30
2019-05-09T22:17:34.111Z,61.30
2019-05-09T22:20:03.399Z,61.40
2019-05-09T22:22:32.186Z,61.80
2019-05-09T22:25:01.009Z,62.00
2019-05-09T22:27:29.770Z,62.20
2019-05-09T22:29:58.539Z,62.30
2019-05-09T22:32:27.294Z,62.80
2019-05-09T22:34:56.103Z,63.20
2019-05-09T22:37:25.152Z,63.30
2019-05-09T22:39:53.925Z,63.60
2019-05-09T22:42:22.696Z,63.30
2019-05-09T22:44:51.469Z,63.60
2019-05-09T22:47:20.304Z,63.90
2019-05-09T22:49:52.595Z,63.90
2019-05-09T22:52:19.860Z,64.20
2019-05-09T22:54:48.636Z,64.40
2019-05-09T22:57:17.488Z,65.00
2019-05-09T22:59:46.703Z,64.60
2019-05-09T23:02:15.541Z,64.70
2019-05-09T23:04:44.371Z,64.60
2019-05-09T23:07:13.396Z,64.90
2019-05-09T23:09:42.230Z,65.00
2019-05-09T23:12:11.051Z,64.80
2019-05-09T23:14:39.933Z,65.20
2019-05-09T23:17:09.560Z,65.40
2019-05-09T23:19:38.335Z,65.60
2019-05-09T23:22:07.783Z,65.80
2019-05-09T23:24:37.371Z,65.90
2019-05-09T23:27:08.538Z,65.80
2019-05-09T23:29:37.319Z,65.90
2019-05-09T23:32:22.284Z,66.20
2019-05-09T23:34:51.060Z,66.10
2019-05-09T23:37:19.810Z,66.10
2019-05-09T23:39:48.949Z,66.30
2019-05-09T23:42:17.705Z,66.50
2019-05-09T23:44:46.866Z,67.20
2019-05-09T23:47:15.968Z,66.90
2019-05-09T23:49:44.744Z,66.90
2019-05-09T23:52:13.499Z,66.90
2019-05-09T23:55:00.345Z,66.90
2019-05-09T23:57:46.943Z,66.90
